sensor_id;sensor_type;location;lat;lon;timestamp;pressure;altitude;pressure_sealevel;temperature;humidity
52855;BME280;38719;51.418;7.286;2023-01-09T00:02:13;97666.28;;;8.53;79.67
52855;BME280;38719;51.418;7.286;2023-01-09T00:04:40;97670.75;;;8.53;80.21
52855;BME280;38719;51.418;7.286;2023-01-09T00:07:10;97669.34;;;8.60;79.47
52855;BME280;38719;51.418;7.286;2023-01-09T00:09:37;97669.06;;;8.52;79.67
52855;BME280;38719;51.418;7.286;2023-01-09T00:12:05;97676.22;;;8.63;79.60
52855;BME280;38719;51.418;7.286;2023-01-09T00:14:33;97674.28;;;8.65;78.64
52855;BME280;38719;51.418;7.286;2023-01-09T00:17:00;97675.81;;;8.56;78.43
52855;BME280;38719;51.418;7.286;2023-01-09T00:19:28;97681.19;;;8.67;78.90
52855;BME280;38719;51.418;7.286;2023-01-09T00:21:56;97675.88;;;8.67;78.76
52855;BME280;38719;51.418;7.286;2023-01-09T00:24:25;97676.63;;;8.69;78.05
52855;BME280;38719;51.418;7.286;2023-01-09T00:26:52;97673.00;;;8.70;78.93
52855;BME280;38719;51.418;7.286;2023-01-09T00:29:20;97671.00;;;8.61;78.48
52855;BME280;38719;51.418;7.286;2023-01-09T00:31:47;97682.19;;;8.53;79.15
52855;BME280;38719;51.418;7.286;2023-01-09T00:34:15;97675.81;;;8.56;78.11
52855;BME280;38719;51.418;7.286;2023-01-09T00:36:42;97678.47;;;8.56;77.51
52855;BME280;38719;51.418;7.286;2023-01-09T00:39:10;97676.69;;;8.57;77.28
52855;BME280;38719;51.418;7.286;2023-01-09T00:41:41;97684.72;;;8.55;77.36
52855;BME280;38719;51.418;7.286;2023-01-09T00:44:14;97688.13;;;8.57;77.08
52855;BME280;38719;51.418;7.286;2023-01-09T00:46:45;97681.16;;;8.43;78.34
52855;BME280;38719;51.418;7.286;2023-01-09T00:49:14;97681.34;;;8.53;77.27
52855;BME280;38719;51.418;7.286;2023-01-09T00:51:43;97688.81;;;8.48;77.67
52855;BME280;38719;51.418;7.286;2023-01-09T00:54:12;97691.19;;;8.27;78.52
52855;BME280;38719;51.418;7.286;2023-01-09T00:56:42;97682.88;;;8.31;77.52
52855;BME280;38719;51.418;7.286;2023-01-09T00:59:10;97689.03;;;8.32;77.12
52855;BME280;38719;51.418;7.286;2023-01-09T01:01:37;97685.16;;;8.49;77.55
52855;BME280;38719;51.418;7.286;2023-01-09T01:04:05;97686.25;;;8.46;78.13
52855;BME280;38719;51.418;7.286;2023-01-09T01:06:46;97685.78;;;8.52;78.04
52855;BME280;38719;51.418;7.286;2023-01-09T01:09:32;97697.28;;;8.53;77.19
52855;BME280;38719;51.418;7.286;2023-01-09T01:12:01;97690.28;;;8.52;77.66
52855;BME280;38719;51.418;7.286;2023-01-09T01:14:32;97695.78;;;8.49;77.78
52855;BME280;38719;51.418;7.286;2023-01-09T01:17:00;97699.41;;;8.48;78.38
52855;BME280;38719;51.418;7.286;2023-01-09T01:19:28;97702.47;;;8.54;77.68
52855;BME280;38719;51.418;7.286;2023-01-09T01:21:56;97702.34;;;8.56;76.48
52855;BME280;38719;51.418;7.286;2023-01-09T01:24:23;97695.34;;;8.55;78.10
52855;BME280;38719;51.418;7.286;2023-01-09T01:26:51;97698.97;;;8.54;77.05
52855;BME280;38719;51.418;7.286;2023-01-09T01:29:20;97705.94;;;8.55;77.50
52855;BME280;38719;51.418;7.286;2023-01-09T01:31:47;97703.63;;;8.37;77.99
52855;BME280;38719;51.418;7.286;2023-01-09T01:34:15;97703.28;;;8.55;76.90
52855;BME280;38719;51.418;7.286;2023-01-09T01:36:42;97705.69;;;8.47;77.25
52855;BME280;38719;51.418;7.286;2023-01-09T01:39:10;97688.56;;;8.51;76.69
52855;BME280;38719;51.418;7.286;2023-01-09T01:41:38;97698.84;;;8.43;76.49
52855;BME280;38719;51.418;7.286;2023-01-09T01:44:53;97696.75;;;8.35;76.05
52855;BME280;38719;51.418;7.286;2023-01-09T01:46:55;97702.38;;;8.30;76.46
52855;BME280;38719;51.418;7.286;2023-01-09T01:49:23;97711.00;;;8.21;76.78
52855;BME280;38719;51.418;7.286;2023-01-09T01:51:52;97710.69;;;8.13;77.14
52855;BME280;38719;51.418;7.286;2023-01-09T01:54:22;97712.41;;;8.14;76.08
52855;BME280;38719;51.418;7.286;2023-01-09T01:56:55;97713.09;;;8.29;76.53
52855;BME280;38719;51.418;7.286;2023-01-09T01:59:28;97722.16;;;8.13;76.32
52855;BME280;38719;51.418;7.286;2023-01-09T02:02:01;97723.00;;;8.27;75.66
52855;BME280;38719;51.418;7.286;2023-01-09T02:04:32;97728.47;;;8.36;75.57
52855;BME280;38719;51.418;7.286;2023-01-09T02:07:02;97730.59;;;8.31;74.92
52855;BME280;38719;51.418;7.286;2023-01-09T02:09:31;97728.94;;;8.17;74.96
52855;BME280;38719;51.418;7.286;2023-01-09T02:11:58;97729.69;;;8.19;75.10
52855;BME280;38719;51.418;7.286;2023-01-09T02:14:28;97724.91;;;8.25;75.11
52855;BME280;38719;51.418;7.286;2023-01-09T02:17:06;97722.81;;;8.17;76.14
52855;BME280;38719;51.418;7.286;2023-01-09T02:20:10;97735.94;;;8.18;76.20
52855;BME280;38719;51.418;7.286;2023-01-09T02:22:56;97739.34;;;8.07;75.82
52855;BME280;38719;51.418;7.286;2023-01-09T02:25:43;97739.53;;;8.17;76.03
52855;BME280;38719;51.418;7.286;2023-01-09T02:28:35;97746.53;;;8.18;75.78
52855;BME280;38719;51.418;7.286;2023-01-09T02:31:14;97745.88;;;8.41;75.42
52855;BME280;38719;51.418;7.286;2023-01-09T02:33:52;97751.41;;;8.50;75.06
52855;BME280;38719;51.418;7.286;2023-01-09T02:36:29;97754.97;;;8.36;75.00
52855;BME280;38719;51.418;7.286;2023-01-09T02:39:09;97748.88;;;8.23;75.41
52855;BME280;38719;51.418;7.286;2023-01-09T02:41:45;97748.84;;;8.49;75.03
52855;BME280;38719;51.418;7.286;2023-01-09T02:44:20;97746.59;;;8.43;75.19
52855;BME280;38719;51.418;7.286;2023-01-09T02:47:01;97748.28;;;8.44;74.95
52855;BME280;38719;51.418;7.286;2023-01-09T02:49:29;97745.47;;;8.47;75.58
52855;BME280;38719;51.418;7.286;2023-01-09T02:52:07;97744.06;;;8.41;74.94
52855;BME280;38719;51.418;7.286;2023-01-09T02:54:49;97746.50;;;8.31;74.74
52855;BME280;38719;51.418;7.286;2023-01-09T02:57:41;97752.88;;;8.42;75.26
52855;BME280;38719;51.418;7.286;2023-01-09T03:00:21;97747.88;;;8.50;74.48
52855;BME280;38719;51.418;7.286;2023-01-09T03:02:55;97744.34;;;8.62;74.10
52855;BME280;38719;51.418;7.286;2023-01-09T03:05:31;97740.84;;;8.62;73.87
52855;BME280;38719;51.418;7.286;2023-01-09T03:08:07;97744.47;;;8.61;73.65
52855;BME280;38719;51.418;7.286;2023-01-09T03:10:41;97742.69;;;8.35;74.47
52855;BME280;38719;51.418;7.286;2023-01-09T03:13:15;97755.00;;;8.49;74.28
52855;BME280;38719;51.418;7.286;2023-01-09T03:15:45;97747.22;;;8.59;74.13
52855;BME280;38719;51.418;7.286;2023-01-09T03:18:20;97743.69;;;8.71;73.75
52855;BME280;38719;51.418;7.286;2023-01-09T03:20:49;97751.59;;;8.47;74.14
52855;BME280;38719;51.418;7.286;2023-01-09T03:23:18;97758.91;;;8.44;74.28
52855;BME280;38719;51.418;7.286;2023-01-09T03:25:45;97764.13;;;8.45;73.88
52855;BME280;38719;51.418;7.286;2023-01-09T03:28:25;97765.19;;;8.55;74.62
52855;BME280;38719;51.418;7.286;2023-01-09T03:30:54;97777.47;;;8.44;74.56
52855;BME280;38719;51.418;7.286;2023-01-09T03:33:23;97784.81;;;8.53;74.49
52855;BME280;38719;51.418;7.286;2023-01-09T03:35:50;97788.41;;;8.39;74.55
52855;BME280;38719;51.418;7.286;2023-01-09T03:38:18;97788.75;;;8.34;75.21
52855;BME280;38719;51.418;7.286;2023-01-09T03:40:45;97799.34;;;8.34;75.85
52855;BME280;38719;51.418;7.286;2023-01-09T03:43:13;97808.03;;;8.36;74.98
52855;BME280;38719;51.418;7.286;2023-01-09T03:45:41;97812.06;;;8.42;74.24
52855;BME280;38719;51.418;7.286;2023-01-09T03:48:09;97809.97;;;8.34;75.38
52855;BME280;38719;51.418;7.286;2023-01-09T03:50:38;97816.13;;;8.48;74.59
52855;BME280;38719;51.418;7.286;2023-01-09T03:53:07;97807.31;;;8.34;74.53
52855;BME280;38719;51.418;7.286;2023-01-09T03:55:35;97822.16;;;8.37;73.82
52855;BME280;38719;51.418;7.286;2023-01-09T03:58:02;97815.03;;;8.37;74.06
52855;BME280;38719;51.418;7.286;2023-01-09T04:00:30;97808.44;;;8.30;74.36
52855;BME280;38719;51.418;7.286;2023-01-09T04:02:58;97817.16;;;8.45;73.58
52855;BME280;38719;51.418;7.286;2023-01-09T04:05:25;97821.84;;;8.54;73.24
52855;BME280;38719;51.418;7.286;2023-01-09T04:07:54;97816.84;;;8.63;72.98
52855;BME280;38719;51.418;7.286;2023-01-09T04:10:22;97827.47;;;8.63;73.17
52855;BME280;38719;51.418;7.286;2023-01-09T04:12:50;97824.25;;;8.45;72.55
52855;BME280;38719;51.418;7.286;2023-01-09T04:15:18;97830.75;;;8.53;73.05
52855;BME280;38719;51.418;7.286;2023-01-09T04:17:45;97819.75;;;8.47;71.73
52855;BME280;38719;51.418;7.286;2023-01-09T04:20:13;97822.47;;;8.32;71.72
52855;BME280;38719;51.418;7.286;2023-01-09T04:22:41;97832.34;;;8.43;71.68
52855;BME280;38719;51.418;7.286;2023-01-09T04:25:10;97823.53;;;8.55;71.79
52855;BME280;38719;51.418;7.286;2023-01-09T04:27:37;97823.75;;;8.39;71.11
52855;BME280;38719;51.418;7.286;2023-01-09T04:30:06;97836.03;;;8.28;71.09
52855;BME280;38719;51.418;7.286;2023-01-09T04:32:34;97835.19;;;8.27;72.45
52855;BME280;38719;51.418;7.286;2023-01-09T04:35:02;97833.06;;;8.32;71.52
52855;BME280;38719;51.418;7.286;2023-01-09T04:37:30;97834.03;;;8.44;70.65
52855;BME280;38719;51.418;7.286;2023-01-09T04:39:57;97845.41;;;8.20;71.37
52855;BME280;38719;51.418;7.286;2023-01-09T04:42:26;97846.53;;;8.16;70.91
52855;BME280;38719;51.418;7.286;2023-01-09T04:44:54;97856.41;;;8.01;70.78
52855;BME280;38719;51.418;7.286;2023-01-09T04:47:21;97847.91;;;8.09;71.04
52855;BME280;38719;51.418;7.286;2023-01-09T04:49:49;97845.50;;;8.06;71.84
52855;BME280;38719;51.418;7.286;2023-01-09T04:52:17;97837.09;;;8.25;70.66
52855;BME280;38719;51.418;7.286;2023-01-09T04:54:44;97843.78;;;8.18;70.31
52855;BME280;38719;51.418;7.286;2023-01-09T04:57:12;97849.41;;;8.13;70.42
52855;BME280;38719;51.418;7.286;2023-01-09T04:59:41;97844.00;;;8.15;70.59
52855;BME280;38719;51.418;7.286;2023-01-09T05:02:09;97847.06;;;7.96;70.93
52855;BME280;38719;51.418;7.286;2023-01-09T05:04:37;97852.75;;;7.89;72.12
52855;BME280;38719;51.418;7.286;2023-01-09T05:07:04;97862.88;;;7.97;71.24
52855;BME280;38719;51.418;7.286;2023-01-09T05:09:32;97867.41;;;7.95;71.29
52855;BME280;38719;51.418;7.286;2023-01-09T05:12:01;97870.19;;;7.94;71.60
52855;BME280;38719;51.418;7.286;2023-01-09T05:14:28;97863.88;;;7.82;71.47
52855;BME280;38719;51.418;7.286;2023-01-09T05:16:58;97868.53;;;7.78;72.39
52855;BME280;38719;51.418;7.286;2023-01-09T05:19:25;97871.19;;;7.78;72.91
52855;BME280;38719;51.418;7.286;2023-01-09T05:21:53;97882.25;;;7.85;71.92
52855;BME280;38719;51.418;7.286;2023-01-09T05:24:20;97884.38;;;7.93;71.05
52855;BME280;38719;51.418;7.286;2023-01-09T05:26:48;97886.69;;;7.84;71.91
52855;BME280;38719;51.418;7.286;2023-01-09T05:29:15;97882.91;;;8.01;71.53
52855;BME280;38719;51.418;7.286;2023-01-09T05:31:43;97878.66;;;8.12;71.36
52855;BME280;38719;51.418;7.286;2023-01-09T05:34:12;97886.75;;;8.23;70.22
52855;BME280;38719;51.418;7.286;2023-01-09T05:36:39;97894.50;;;8.13;71.06
52855;BME280;38719;51.418;7.286;2023-01-09T05:39:07;97883.34;;;8.08;71.38
52855;BME280;38719;51.418;7.286;2023-01-09T05:41:35;97877.81;;;8.11;70.42
52855;BME280;38719;51.418;7.286;2023-01-09T05:44:02;97891.81;;;8.00;71.51
52855;BME280;38719;51.418;7.286;2023-01-09T05:46:31;97885.44;;;7.90;70.85
52855;BME280;38719;51.418;7.286;2023-01-09T05:48:59;97893.50;;;8.01;70.86
52855;BME280;38719;51.418;7.286;2023-01-09T05:51:27;97891.25;;;7.95;70.59
52855;BME280;38719;51.418;7.286;2023-01-09T05:53:57;97899.63;;;7.89;70.38
52855;BME280;38719;51.418;7.286;2023-01-09T05:56:24;97892.66;;;8.01;69.59
52855;BME280;38719;51.418;7.286;2023-01-09T05:58:52;97891.72;;;8.02;69.95
52855;BME280;38719;51.418;7.286;2023-01-09T06:01:20;97885.53;;;7.88;69.54
52855;BME280;38719;51.418;7.286;2023-01-09T06:03:49;97889.38;;;7.97;69.48
52855;BME280;38719;51.418;7.286;2023-01-09T06:06:16;97889.47;;;7.96;69.50
52855;BME280;38719;51.418;7.286;2023-01-09T06:08:45;97888.19;;;7.88;70.07
52855;BME280;38719;51.418;7.286;2023-01-09T06:11:13;97875.03;;;7.87;69.41
52855;BME280;38719;51.418;7.286;2023-01-09T06:13:41;97890.28;;;7.83;69.14
52855;BME280;38719;51.418;7.286;2023-01-09T06:16:08;97883.94;;;7.86;69.47
52855;BME280;38719;51.418;7.286;2023-01-09T06:18:36;97899.53;;;7.90;68.96
52855;BME280;38719;51.418;7.286;2023-01-09T06:21:04;97895.16;;;7.89;69.78
52855;BME280;38719;51.418;7.286;2023-01-09T06:23:31;97893.97;;;7.81;70.53
52855;BME280;38719;51.418;7.286;2023-01-09T06:26:00;97897.16;;;7.73;71.12
52855;BME280;38719;51.418;7.286;2023-01-09T06:28:29;97901.06;;;7.67;70.41
52855;BME280;38719;51.418;7.286;2023-01-09T06:30:57;97898.06;;;7.59;71.63
52855;BME280;38719;51.418;7.286;2023-01-09T06:33:24;97906.66;;;7.63;71.85
52855;BME280;38719;51.418;7.286;2023-01-09T06:35:52;97916.75;;;7.70;70.83
52855;BME280;38719;51.418;7.286;2023-01-09T06:38:19;97906.78;;;7.61;71.49
52855;BME280;38719;51.418;7.286;2023-01-09T06:40:47;97899.63;;;7.49;72.68
52855;BME280;38719;51.418;7.286;2023-01-09T06:43:16;97901.22;;;7.51;72.32
52855;BME280;38719;51.418;7.286;2023-01-09T06:45:44;97903.88;;;7.51;72.49
52855;BME280;38719;51.418;7.286;2023-01-09T06:48:12;97898.91;;;7.59;72.98
52855;BME280;38719;51.418;7.286;2023-01-09T06:50:39;97902.31;;;7.62;72.85
52855;BME280;38719;51.418;7.286;2023-01-09T06:53:07;97909.00;;;7.67;73.44
52855;BME280;38719;51.418;7.286;2023-01-09T06:55:35;97919.81;;;7.77;72.63
52855;BME280;38719;51.418;7.286;2023-01-09T06:58:04;97905.75;;;7.77;73.06
52855;BME280;38719;51.418;7.286;2023-01-09T07:00:33;97914.44;;;7.79;72.96
52855;BME280;38719;51.418;7.286;2023-01-09T07:03:00;97907.84;;;7.71;73.49
52855;BME280;38719;51.418;7.286;2023-01-09T07:05:28;97914.22;;;7.82;72.23
52855;BME280;38719;51.418;7.286;2023-01-09T07:07:56;97902.56;;;7.71;73.72
52855;BME280;38719;51.418;7.286;2023-01-09T07:10:23;97915.56;;;7.62;73.83
52855;BME280;38719;51.418;7.286;2023-01-09T07:12:51;97918.00;;;7.65;73.48
52855;BME280;38719;51.418;7.286;2023-01-09T07:15:18;97917.66;;;7.56;73.17
52855;BME280;38719;51.418;7.286;2023-01-09T07:17:49;97900.75;;;7.45;73.65
52855;BME280;38719;51.418;7.286;2023-01-09T07:20:17;97900.75;;;7.45;73.66
52855;BME280;38719;51.418;7.286;2023-01-09T07:22:45;97904.47;;;7.28;74.15
52855;BME280;38719;51.418;7.286;2023-01-09T07:25:13;97907.72;;;7.33;73.43
52855;BME280;38719;51.418;7.286;2023-01-09T07:27:43;97917.97;;;7.37;73.45
52855;BME280;38719;51.418;7.286;2023-01-09T07:30:12;97913.66;;;7.36;73.47
52855;BME280;38719;51.418;7.286;2023-01-09T07:32:39;97905.13;;;7.31;74.03
52855;BME280;38719;51.418;7.286;2023-01-09T07:35:09;97901.38;;;7.35;73.00
52855;BME280;38719;51.418;7.286;2023-01-09T07:37:37;97911.81;;;7.24;73.37
52855;BME280;38719;51.418;7.286;2023-01-09T07:40:06;97905.53;;;7.25;73.96
52855;BME280;38719;51.418;7.286;2023-01-09T07:42:33;97916.88;;;7.27;73.87
52855;BME280;38719;51.418;7.286;2023-01-09T07:45:01;97920.47;;;7.26;74.04
52855;BME280;38719;51.418;7.286;2023-01-09T07:47:29;97916.78;;;7.29;73.11
52855;BME280;38719;51.418;7.286;2023-01-09T07:49:56;97919.13;;;7.33;72.94
52855;BME280;38719;51.418;7.286;2023-01-09T07:52:25;97913.84;;;7.33;73.09
52855;BME280;38719;51.418;7.286;2023-01-09T07:54:53;97921.81;;;7.19;73.08
52855;BME280;38719;51.418;7.286;2023-01-09T07:57:20;97927.31;;;7.16;74.06
52855;BME280;38719;51.418;7.286;2023-01-09T07:59:48;97921.81;;;7.19;74.33
52855;BME280;38719;51.418;7.286;2023-01-09T08:02:15;97912.09;;;7.19;73.94
52855;BME280;38719;51.418;7.286;2023-01-09T08:04:44;97912.94;;;7.20;74.19
52855;BME280;38719;51.418;7.286;2023-01-09T08:07:11;97918.78;;;7.25;74.14
52855;BME280;38719;51.418;7.286;2023-01-09T08:09:40;97918.03;;;7.23;74.83
52855;BME280;38719;51.418;7.286;2023-01-09T08:12:07;97922.78;;;7.18;75.54
52855;BME280;38719;51.418;7.286;2023-01-09T08:14:35;97933.56;;;7.15;75.17
52855;BME280;38719;51.418;7.286;2023-01-09T08:17:02;97924.13;;;7.10;75.76
52855;BME280;38719;51.418;7.286;2023-01-09T08:19:30;97932.78;;;7.13;75.60
52855;BME280;38719;51.418;7.286;2023-01-09T08:21:57;97929.47;;;7.23;75.46
52855;BME280;38719;51.418;7.286;2023-01-09T08:24:25;97929.34;;;7.25;75.31
52855;BME280;38719;51.418;7.286;2023-01-09T08:26:54;97939.59;;;7.17;76.38
52855;BME280;38719;51.418;7.286;2023-01-09T08:29:21;97929.97;;;7.16;76.41
52855;BME280;38719;51.418;7.286;2023-01-09T08:31:49;97936.75;;;7.20;76.41
52855;BME280;38719;51.418;7.286;2023-01-09T08:34:16;97941.88;;;7.23;77.35
52855;BME280;38719;51.418;7.286;2023-01-09T08:36:44;97930.56;;;7.34;76.53
52855;BME280;38719;51.418;7.286;2023-01-09T08:39:11;97929.47;;;7.23;77.20
52855;BME280;38719;51.418;7.286;2023-01-09T08:41:39;97933.06;;;7.22;77.26
52855;BME280;38719;51.418;7.286;2023-01-09T08:44:26;97933.56;;;7.15;77.00
52855;BME280;38719;51.418;7.286;2023-01-09T08:47:12;97931.94;;;7.26;78.30
52855;BME280;38719;51.418;7.286;2023-01-09T08:49:41;97931.81;;;7.28;77.52
52855;BME280;38719;51.418;7.286;2023-01-09T08:52:08;97924.66;;;7.16;77.71
52855;BME280;38719;51.418;7.286;2023-01-09T08:54:36;97927.22;;;7.17;78.49
52855;BME280;38719;51.418;7.286;2023-01-09T08:57:05;97936.75;;;7.20;78.00
52855;BME280;38719;51.418;7.286;2023-01-09T08:59:34;97934.38;;;7.30;77.32
52855;BME280;38719;51.418;7.286;2023-01-09T09:02:02;97947.50;;;7.31;78.35
52855;BME280;38719;51.418;7.286;2023-01-09T09:04:29;97941.53;;;7.42;77.67
52855;BME280;38719;51.418;7.286;2023-01-09T09:06:57;97940.69;;;7.41;76.87
52855;BME280;38719;51.418;7.286;2023-01-09T09:09:24;97938.31;;;7.51;77.59
52855;BME280;38719;51.418;7.286;2023-01-09T09:11:52;97937.25;;;7.54;76.56
52855;BME280;38719;51.418;7.286;2023-01-09T09:14:19;97943.09;;;7.59;76.52
52855;BME280;38719;51.418;7.286;2023-01-09T09:17:06;97949.34;;;7.58;77.37
52855;BME280;38719;51.418;7.286;2023-01-09T09:19:33;97959.56;;;7.77;76.58
52855;BME280;38719;51.418;7.286;2023-01-09T09:22:01;97952.84;;;7.86;75.58
52855;BME280;38719;51.418;7.286;2023-01-09T09:24:28;97959.81;;;7.87;76.37
52855;BME280;38719;51.418;7.286;2023-01-09T09:26:56;97965.09;;;7.74;75.32
52855;BME280;38719;51.418;7.286;2023-01-09T09:29:23;97962.16;;;7.79;76.70
52855;BME280;38719;51.418;7.286;2023-01-09T09:31:51;97971.84;;;7.65;77.02
52855;BME280;38719;51.418;7.286;2023-01-09T09:34:20;97969.03;;;7.54;77.33
52855;BME280;38719;51.418;7.286;2023-01-09T09:36:48;97969.03;;;7.54;76.75
52855;BME280;38719;51.418;7.286;2023-01-09T09:39:16;97977.72;;;7.56;77.88
52855;BME280;38719;51.418;7.286;2023-01-09T09:42:02;97986.41;;;7.72;76.71
52855;BME280;38719;51.418;7.286;2023-01-09T09:45:05;97984.78;;;7.70;76.92
52855;BME280;38719;51.418;7.286;2023-01-09T09:47:45;97985.09;;;7.65;77.86
52855;BME280;38719;51.418;7.286;2023-01-09T09:50:38;97989.78;;;7.74;77.33
52855;BME280;38719;51.418;7.286;2023-01-09T09:53:18;97990.81;;;7.99;76.29
52855;BME280;38719;51.418;7.286;2023-01-09T09:55:48;98002.28;;;8.00;76.57
52855;BME280;38719;51.418;7.286;2023-01-09T09:58:20;98002.69;;;7.94;76.00
52855;BME280;38719;51.418;7.286;2023-01-09T10:00:51;98004.97;;;7.85;76.68
52855;BME280;38719;51.418;7.286;2023-01-09T10:03:25;98012.03;;;7.99;77.42
52855;BME280;38719;51.418;7.286;2023-01-09T10:06:03;98026.59;;;8.06;76.81
52855;BME280;38719;51.418;7.286;2023-01-09T10:08:36;98022.41;;;8.17;76.83
52855;BME280;38719;51.418;7.286;2023-01-09T10:11:12;98021.34;;;8.19;76.91
52855;BME280;38719;51.418;7.286;2023-01-09T10:13:41;98015.78;;;8.10;76.60
52855;BME280;38719;51.418;7.286;2023-01-09T10:16:40;98012.13;;;8.25;75.81
52855;BME280;38719;51.418;7.286;2023-01-09T10:19:24;98019.13;;;8.26;76.81
52855;BME280;38719;51.418;7.286;2023-01-09T10:22:06;98024.84;;;8.20;76.81
52855;BME280;38719;51.418;7.286;2023-01-09T10:24:45;98018.44;;;8.10;75.66
52855;BME280;38719;51.418;7.286;2023-01-09T10:27:22;98019.78;;;8.02;76.37
52855;BME280;38719;51.418;7.286;2023-01-09T10:30:04;98021.19;;;8.08;76.28
52855;BME280;38719;51.418;7.286;2023-01-09T10:32:52;98019.69;;;8.04;76.04
52855;BME280;38719;51.418;7.286;2023-01-09T10:35:36;98020.88;;;8.13;77.10
52855;BME280;38719;51.418;7.286;2023-01-09T10:38:18;98024.19;;;8.16;75.77
52855;BME280;38719;51.418;7.286;2023-01-09T10:40:51;98025.28;;;7.99;75.66
52855;BME280;38719;51.418;7.286;2023-01-09T10:43:29;98033.31;;;8.12;76.08
52855;BME280;38719;51.418;7.286;2023-01-09T10:46:02;98030.84;;;8.09;76.32
52855;BME280;38719;51.418;7.286;2023-01-09T10:48:34;98028.41;;;8.06;75.31
52855;BME280;38719;51.418;7.286;2023-01-09T10:51:02;98031.34;;;8.01;75.53
52855;BME280;38719;51.418;7.286;2023-01-09T10:53:42;98035.47;;;8.05;75.84
52855;BME280;38719;51.418;7.286;2023-01-09T10:56:17;98027.78;;;8.15;75.89
52855;BME280;38719;51.418;7.286;2023-01-09T10:58:46;98025.47;;;8.23;75.02
52855;BME280;38719;51.418;7.286;2023-01-09T11:01:15;98025.06;;;8.17;74.82
52855;BME280;38719;51.418;7.286;2023-01-09T11:03:44;98031.84;;;8.21;74.59
52855;BME280;38719;51.418;7.286;2023-01-09T11:06:20;98035.81;;;8.41;73.89
52855;BME280;38719;51.418;7.286;2023-01-09T11:08:52;98034.94;;;8.28;73.70
52855;BME280;38719;51.418;7.286;2023-01-09T11:11:31;98015.88;;;8.35;74.45
52855;BME280;38719;51.418;7.286;2023-01-09T11:14:04;98031.03;;;8.33;74.00
52855;BME280;38719;51.418;7.286;2023-01-09T11:16:32;98033.06;;;8.43;74.30
52855;BME280;38719;51.418;7.286;2023-01-09T11:19:00;98036.88;;;8.38;73.20
52855;BME280;38719;51.418;7.286;2023-01-09T11:21:33;98041.22;;;8.27;73.29
52855;BME280;38719;51.418;7.286;2023-01-09T11:24:24;98036.09;;;8.23;73.63
52855;BME280;38719;51.418;7.286;2023-01-09T11:27:16;98041.22;;;8.27;73.69
52855;BME280;38719;51.418;7.286;2023-01-09T11:30:19;98025.47;;;8.51;73.42
52855;BME280;38719;51.418;7.286;2023-01-09T11:32:51;98038.47;;;8.41;72.78
52855;BME280;38719;51.418;7.286;2023-01-09T11:35:23;98041.69;;;8.46;72.40
52855;BME280;38719;51.418;7.286;2023-01-09T11:38:02;98047.59;;;8.37;73.05
52855;BME280;38719;51.418;7.286;2023-01-09T11:40:36;98040.63;;;8.49;72.44
52855;BME280;38719;51.418;7.286;2023-01-09T11:43:16;98054.59;;;8.65;71.51
52855;BME280;38719;51.418;7.286;2023-01-09T11:45:48;98049.88;;;8.56;71.64
52855;BME280;38719;51.418;7.286;2023-01-09T11:48:35;98052.44;;;8.30;71.16
52855;BME280;38719;51.418;7.286;2023-01-09T11:51:05;98053.91;;;8.49;71.85
52855;BME280;38719;51.418;7.286;2023-01-09T11:53:48;98056.06;;;8.57;71.27
52855;BME280;38719;51.418;7.286;2023-01-09T11:56:18;98061.44;;;8.55;70.82
52855;BME280;38719;51.418;7.286;2023-01-09T11:58:46;98062.22;;;8.43;71.85
52855;BME280;38719;51.418;7.286;2023-01-09T12:01:26;98067.25;;;8.47;71.67
52855;BME280;38719;51.418;7.286;2023-01-09T12:04:07;98070.50;;;8.65;71.68
52855;BME280;38719;51.418;7.286;2023-01-09T12:06:44;98067.31;;;8.60;71.80
52855;BME280;38719;51.418;7.286;2023-01-09T12:09:20;98065.72;;;8.70;70.98
52855;BME280;38719;51.418;7.286;2023-01-09T12:11:59;98066.81;;;8.81;70.54
52855;BME280;38719;51.418;7.286;2023-01-09T12:14:41;98085.78;;;8.62;71.27
52855;BME280;38719;51.418;7.286;2023-01-09T12:17:44;98082.91;;;8.65;70.38
52855;BME280;38719;51.418;7.286;2023-01-09T12:20:23;98087.91;;;8.69;71.31
52855;BME280;38719;51.418;7.286;2023-01-09T12:23:02;98089.31;;;8.75;70.58
52855;BME280;38719;51.418;7.286;2023-01-09T12:25:43;98082.59;;;8.69;71.18
52855;BME280;38719;51.418;7.286;2023-01-09T12:28:41;98093.56;;;8.78;70.68
52855;BME280;38719;51.418;7.286;2023-01-09T12:31:23;98085.94;;;8.99;70.35
52855;BME280;38719;51.418;7.286;2023-01-09T12:34:02;98091.66;;;9.06;70.09
52855;BME280;38719;51.418;7.286;2023-01-09T12:36:41;98096.34;;;8.89;70.62
52855;BME280;38719;51.418;7.286;2023-01-09T12:39:18;98102.25;;;8.80;70.67
52855;BME280;38719;51.418;7.286;2023-01-09T12:42:05;98105.66;;;8.82;69.99
52855;BME280;38719;51.418;7.286;2023-01-09T12:44:51;98097.50;;;9.11;70.03
52855;BME280;38719;51.418;7.286;2023-01-09T12:47:37;98115.78;;;9.15;69.29
52855;BME280;38719;51.418;7.286;2023-01-09T12:50:30;98115.81;;;9.28;69.51
52855;BME280;38719;51.418;7.286;2023-01-09T12:53:08;98111.13;;;9.06;69.80
52855;BME280;38719;51.418;7.286;2023-01-09T12:55:41;98113.69;;;8.67;69.42
52855;BME280;38719;51.418;7.286;2023-01-09T12:58:15;98113.22;;;8.48;71.19
52855;BME280;38719;51.418;7.286;2023-01-09T13:00:48;98124.41;;;8.66;70.60
52855;BME280;38719;51.418;7.286;2023-01-09T13:03:22;98117.03;;;8.84;70.33
52855;BME280;38719;51.418;7.286;2023-01-09T13:05:53;98118.34;;;8.91;69.78
52855;BME280;38719;51.418;7.286;2023-01-09T13:08:24;98134.75;;;8.83;69.88
52855;BME280;38719;51.418;7.286;2023-01-09T13:10:56;98137.09;;;8.75;69.75
52855;BME280;38719;51.418;7.286;2023-01-09T13:13:35;98142.34;;;8.62;70.32
52855;BME280;38719;51.418;7.286;2023-01-09T13:16:12;98151.41;;;8.73;70.95
52855;BME280;38719;51.418;7.286;2023-01-09T13:18:44;98160.09;;;8.75;71.63
52855;BME280;38719;51.418;7.286;2023-01-09T13:21:13;98158.38;;;8.61;71.17
52855;BME280;38719;51.418;7.286;2023-01-09T13:23:47;98167.66;;;8.53;72.25
52855;BME280;38719;51.418;7.286;2023-01-09T13:26:19;98170.53;;;8.36;72.50
52855;BME280;38719;51.418;7.286;2023-01-09T13:28:49;98170.97;;;8.57;72.29
52855;BME280;38719;51.418;7.286;2023-01-09T13:31:34;98178.84;;;8.59;72.91
52855;BME280;38719;51.418;7.286;2023-01-09T13:34:11;98185.03;;;8.72;71.63
52855;BME280;38719;51.418;7.286;2023-01-09T13:36:49;98189.28;;;8.75;71.76